createdAt,value
2018-06-29T00:00:07.977Z,21.90
2018-06-29T00:02:36.864Z,21.90
2018-06-29T00:05:06.403Z,21.80
2018-06-29T00:07:35.305Z,21.80
2018-06-29T00:10:05.466Z,21.80
2018-06-29T00:12:34.320Z,21.70
2018-06-29T00:15:03.196Z,21.70
2018-06-29T00:17:32.087Z,21.70
2018-06-29T00:20:00.930Z,21.60
2018-06-29T00:22:29.801Z,21.60
2018-06-29T00:24:58.645Z,21.60
2018-06-29T00:27:27.544Z,21.50
2018-06-29T00:29:56.378Z,21.50
2018-06-29T00:32:25.223Z,21.40
2018-06-29T00:34:54.157Z,21.40
2018-06-29T00:37:23.021Z,21.30
2018-06-29T00:39:51.904Z,21.30
2018-06-29T00:42:20.847Z,21.30
2018-06-29T00:44:49.720Z,21.20
2018-06-29T00:47:18.592Z,21.20
2018-06-29T00:49:47.498Z,21.20
2018-06-29T00:52:16.352Z,21.10
2018-06-29T00:54:45.193Z,21.10
2018-06-29T00:57:14.055Z,21.10
2018-06-29T00:59:42.924Z,21.00
2018-06-29T01:02:11.800Z,21.00
2018-06-29T01:04:40.760Z,21.00
2018-06-29T01:07:09.631Z,20.90
2018-06-29T01:09:38.477Z,20.90
2018-06-29T01:12:07.378Z,20.90
2018-06-29T01:14:36.227Z,20.80
2018-06-29T01:17:05.068Z,20.80
2018-06-29T01:19:33.938Z,20.80
2018-06-29T01:22:03.677Z,20.80
2018-06-29T01:27:01.145Z,20.70
2018-06-29T01:29:30.203Z,20.70
2018-06-29T01:31:59.198Z,20.60
2018-06-29T01:34:28.455Z,20.60
2018-06-29T01:36:57.349Z,20.60
2018-06-29T01:39:26.523Z,20.50
2018-06-29T01:41:55.502Z,20.50
2018-06-29T01:44:24.363Z,20.50
2018-06-29T01:46:53.320Z,20.50
2018-06-29T01:49:22.203Z,20.40
2018-06-29T01:51:51.091Z,20.40
2018-06-29T01:54:19.943Z,20.40
2018-06-29T01:56:48.764Z,20.30
2018-06-29T01:59:17.625Z,20.30
2018-06-29T02:01:46.458Z,20.30
2018-06-29T02:04:15.291Z,20.20
2018-06-29T02:06:44.138Z,20.30
2018-06-29T02:09:12.988Z,20.20
2018-06-29T02:11:42.802Z,20.20
2018-06-29T02:14:11.655Z,20.20
2018-06-29T02:16:40.512Z,20.10
2018-06-29T02:19:09.371Z,20.10
2018-06-29T02:21:40.108Z,20.10
2018-06-29T02:24:08.935Z,20.00
2018-06-29T02:26:37.838Z,20.00
2018-06-29T02:29:06.745Z,20.00
2018-06-29T02:31:35.525Z,20.00
2018-06-29T02:34:04.438Z,20.00
2018-06-29T02:36:33.320Z,19.90
2018-06-29T02:39:02.268Z,19.90
2018-06-29T02:41:31.231Z,19.90
2018-06-29T02:44:00.097Z,19.90
2018-06-29T02:46:29.081Z,19.80
2018-06-29T02:48:57.950Z,19.80
2018-06-29T02:51:26.830Z,19.80
2018-06-29T02:53:55.683Z,19.80
2018-06-29T02:56:24.538Z,19.70
2018-06-29T02:58:54.273Z,19.70
2018-06-29T03:01:23.140Z,19.70
2018-06-29T03:03:51.990Z,19.70
2018-06-29T03:06:20.843Z,19.70
2018-06-29T03:08:49.731Z,19.60
2018-06-29T03:11:18.581Z,19.60
2018-06-29T03:13:47.774Z,19.60
2018-06-29T03:16:16.598Z,19.60
2018-06-29T03:18:45.403Z,19.60
2018-06-29T03:21:14.309Z,19.50
2018-06-29T03:23:43.161Z,19.50
2018-06-29T03:26:12.041Z,19.50
2018-06-29T03:28:40.959Z,19.50
2018-06-29T03:31:09.876Z,19.50
2018-06-29T03:33:39.114Z,19.40
2018-06-29T03:36:07.966Z,19.40
2018-06-29T03:38:36.799Z,19.40
2018-06-29T03:41:05.674Z,19.40
2018-06-29T03:43:34.550Z,19.40
2018-06-29T03:46:03.497Z,19.40
2018-06-29T03:48:32.369Z,19.40
2018-06-29T03:51:01.225Z,19.30
2018-06-29T03:53:30.109Z,19.30
2018-06-29T03:55:59.088Z,19.30
2018-06-29T03:58:27.928Z,19.30
2018-06-29T04:00:56.786Z,19.30
2018-06-29T04:03:25.698Z,19.20
2018-06-29T04:05:54.941Z,19.20
2018-06-29T04:08:23.950Z,19.20
2018-06-29T04:10:52.808Z,19.20
2018-06-29T04:13:21.695Z,19.20
2018-06-29T04:15:50.611Z,19.20
2018-06-29T04:18:19.838Z,19.20
2018-06-29T04:20:50.272Z,19.30
2018-06-29T04:23:19.116Z,19.30
2018-06-29T04:25:47.968Z,19.30
2018-06-29T04:28:16.894Z,19.40
2018-06-29T04:30:45.742Z,19.50
2018-06-29T04:33:14.625Z,19.60
2018-06-29T04:35:43.522Z,19.80
2018-06-29T04:38:12.497Z,19.90
2018-06-29T04:40:42.270Z,20.10
2018-06-29T04:43:11.120Z,20.30
2018-06-29T04:45:39.949Z,20.50
2018-06-29T04:48:08.806Z,20.60
2018-06-29T04:50:37.996Z,20.80
2018-06-29T04:53:07.035Z,21.00
2018-06-29T04:55:36.168Z,21.20
2018-06-29T04:58:05.403Z,21.40
2018-06-29T05:00:34.256Z,21.60
2018-06-29T05:03:03.185Z,21.80
2018-06-29T05:05:33.060Z,22.00
2018-06-29T05:08:05.860Z,22.10
2018-06-29T05:10:34.793Z,22.40
2018-06-29T05:13:04.611Z,22.50
2018-06-29T05:15:33.569Z,22.70
2018-06-29T05:18:02.827Z,22.90
2018-06-29T05:20:31.662Z,23.10
2018-06-29T05:23:00.588Z,23.30
2018-06-29T05:25:29.437Z,23.50
2018-06-29T05:27:58.308Z,23.70
2018-06-29T05:30:27.417Z,23.90
2018-06-29T05:32:57.173Z,24.10
2018-06-29T05:35:26.782Z,24.30
2018-06-29T05:37:55.732Z,24.50
2018-06-29T05:40:24.571Z,24.60
2018-06-29T05:42:53.981Z,24.90
2018-06-29T05:45:24.187Z,25.10
2018-06-29T05:47:53.321Z,25.30
2018-06-29T05:50:22.189Z,25.40
2018-06-29T05:52:51.176Z,25.60
2018-06-29T05:55:21.257Z,25.80
2018-06-29T06:00:18.646Z,26.10
2018-06-29T06:02:47.481Z,26.30
2018-06-29T06:05:16.411Z,26.40
2018-06-29T06:07:47.177Z,26.60
2018-06-29T06:10:16.581Z,26.80
2018-06-29T06:12:46.919Z,26.90
2018-06-29T06:15:16.769Z,27.10
2018-06-29T06:17:45.646Z,27.30
2018-06-29T06:20:15.788Z,27.50
2018-06-29T06:22:44.872Z,27.60
2018-06-29T06:25:13.791Z,27.80
2018-06-29T06:27:42.608Z,28.00
2018-06-29T06:30:11.481Z,28.20
2018-06-29T06:32:40.358Z,28.30
2018-06-29T06:35:09.246Z,28.50
2018-06-29T06:37:38.111Z,28.70
2018-06-29T06:40:07.225Z,28.80
2018-06-29T06:42:36.077Z,28.90
2018-06-29T06:45:05.559Z,29.10
2018-06-29T06:47:34.441Z,29.20
2018-06-29T06:50:03.526Z,29.30
2018-06-29T06:52:32.324Z,29.40
2018-06-29T06:55:01.188Z,29.50
2018-06-29T06:57:30.114Z,29.70
2018-06-29T06:59:59.038Z,29.80
2018-06-29T07:02:27.923Z,30.00
2018-06-29T07:04:56.833Z,30.20
2018-06-29T07:07:25.720Z,30.30
2018-06-29T07:09:54.680Z,30.40
2018-06-29T07:12:23.605Z,30.60
2018-06-29T07:14:52.614Z,30.70
2018-06-29T07:17:21.514Z,30.80
2018-06-29T07:19:50.419Z,31.00
2018-06-29T07:22:19.288Z,31.10
2018-06-29T07:24:48.102Z,31.30
2018-06-29T07:27:16.974Z,31.40
2018-06-29T07:29:45.902Z,31.60
2018-06-29T07:32:14.891Z,31.70
2018-06-29T07:37:12.369Z,32.00
2018-06-29T07:39:41.184Z,32.10
2018-06-29T07:42:10.089Z,32.20
2018-06-29T07:44:38.966Z,32.40
2018-06-29T07:47:08.432Z,32.50
2018-06-29T07:49:37.360Z,32.70
2018-06-29T07:52:06.222Z,32.80
2018-06-29T07:54:35.108Z,32.90
2018-06-29T07:57:04.916Z,33.10
2018-06-29T07:59:33.832Z,33.20
2018-06-29T08:02:02.755Z,33.30
2018-06-29T08:04:31.687Z,33.50
2018-06-29T08:07:00.617Z,33.60
2018-06-29T08:09:29.512Z,33.70
2018-06-29T08:11:58.426Z,33.90
2018-06-29T08:14:27.260Z,34.00
2018-06-29T08:16:56.210Z,34.10
2018-06-29T08:19:24.990Z,34.30
2018-06-29T08:21:53.855Z,34.40
2018-06-29T08:24:22.809Z,34.50
2018-06-29T08:26:51.691Z,34.70
2018-06-29T08:29:20.533Z,34.80
2018-06-29T08:31:49.402Z,34.90
2018-06-29T08:34:18.234Z,35.00
2018-06-29T08:36:47.086Z,35.10
2018-06-29T08:39:15.907Z,35.30
2018-06-29T08:41:44.749Z,35.40
2018-06-29T08:44:13.648Z,35.50
2018-06-29T08:46:42.491Z,35.60
2018-06-29T08:49:11.353Z,35.70
2018-06-29T08:51:40.468Z,35.80
2018-06-29T08:54:09.368Z,35.80
2018-06-29T08:56:38.237Z,35.90
2018-06-29T08:59:07.123Z,36.00
2018-06-29T09:01:35.991Z,36.10
2018-06-29T09:04:04.930Z,36.20
2018-06-29T09:06:33.812Z,36.30
2018-06-29T09:09:02.719Z,36.30
2018-06-29T09:11:31.564Z,36.40
2018-06-29T09:14:00.483Z,36.50
2018-06-29T09:16:29.344Z,36.70
2018-06-29T09:18:58.263Z,36.80
2018-06-29T09:21:27.158Z,36.80
2018-06-29T09:23:56.018Z,36.90
2018-06-29T09:26:24.892Z,37.00
2018-06-29T09:28:54.081Z,37.10
2018-06-29T09:31:23.005Z,37.20
2018-06-29T09:33:51.935Z,37.30
2018-06-29T09:36:20.982Z,37.40
2018-06-29T09:38:50.229Z,37.50
2018-06-29T09:41:19.261Z,37.60
2018-06-29T09:43:48.524Z,37.70
2018-06-29T09:46:18.296Z,37.80
2018-06-29T09:48:47.216Z,37.80
2018-06-29T09:51:16.103Z,37.90
2018-06-29T09:53:45.019Z,37.90
2018-06-29T09:56:13.899Z,38.00
2018-06-29T09:58:42.816Z,38.10
2018-06-29T10:01:12.086Z,38.20
2018-06-29T10:03:41.438Z,38.30
2018-06-29T10:06:10.351Z,38.30
2018-06-29T10:08:39.353Z,38.40
2018-06-29T10:11:08.411Z,38.50
2018-06-29T10:13:37.272Z,38.60
2018-06-29T10:16:06.138Z,38.70
2018-06-29T10:18:35.006Z,38.80
2018-06-29T10:21:04.771Z,38.80
2018-06-29T10:23:34.402Z,38.90
2018-06-29T10:26:03.403Z,38.90
2018-06-29T10:28:32.357Z,38.90
2018-06-29T10:31:01.267Z,38.90
2018-06-29T10:33:30.134Z,39.00
2018-06-29T10:35:59.129Z,39.10
2018-06-29T10:38:27.932Z,39.10
2018-06-29T10:40:56.820Z,39.10
2018-06-29T10:48:28.566Z,39.30
2018-06-29T10:50:57.496Z,39.30
2018-06-29T10:53:27.731Z,39.30
2018-06-29T10:55:57.212Z,39.30
2018-06-29T10:58:26.065Z,39.30
2018-06-29T11:00:54.982Z,39.30
2018-06-29T11:03:24.459Z,39.30
2018-06-29T11:05:53.393Z,39.40
2018-06-29T11:08:22.745Z,39.40
2018-06-29T11:10:51.676Z,39.50
2018-06-29T11:13:20.514Z,39.50
2018-06-29T11:15:49.380Z,39.50
2018-06-29T11:18:18.338Z,39.50
2018-06-29T11:20:47.197Z,39.40
2018-06-29T11:23:16.089Z,39.40
2018-06-29T11:25:44.964Z,39.40
2018-06-29T11:28:14.287Z,39.40
2018-06-29T11:30:43.232Z,39.40
2018-06-29T11:33:12.132Z,39.40
2018-06-29T11:35:41.047Z,39.50
2018-06-29T11:38:10.487Z,39.50
2018-06-29T11:40:39.394Z,39.50
2018-06-29T11:43:08.261Z,39.60
2018-06-29T11:45:37.108Z,39.60
2018-06-29T11:48:05.989Z,39.70
2018-06-29T11:50:35.748Z,39.70
2018-06-29T11:53:05.147Z,39.70
2018-06-29T11:55:34.005Z,39.80
2018-06-29T11:58:02.910Z,39.80
2018-06-29T12:00:31.887Z,39.80
2018-06-29T12:03:00.744Z,39.80
2018-06-29T12:05:29.648Z,39.80
2018-06-29T12:07:58.618Z,39.70
2018-06-29T12:10:27.501Z,39.70
2018-06-29T12:12:56.351Z,39.70
2018-06-29T12:15:25.201Z,39.70
2018-06-29T12:17:54.082Z,39.70
2018-06-29T12:20:22.909Z,39.70
2018-06-29T12:22:51.797Z,39.80
2018-06-29T12:25:20.643Z,39.70
2018-06-29T12:27:49.529Z,39.70
2018-06-29T12:30:18.409Z,39.70
2018-06-29T12:32:47.278Z,39.70
2018-06-29T12:35:16.183Z,39.70
2018-06-29T12:37:45.064Z,39.70
2018-06-29T12:40:14.013Z,39.70
2018-06-29T12:42:42.885Z,39.70
2018-06-29T12:45:11.785Z,39.80
2018-06-29T12:47:40.776Z,39.80
2018-06-29T12:50:09.738Z,39.80
2018-06-29T12:52:38.703Z,39.80
2018-06-29T12:55:07.552Z,39.80
2018-06-29T12:57:36.443Z,39.80
2018-06-29T13:00:05.736Z,39.70
2018-06-29T13:02:34.624Z,39.70
2018-06-29T13:05:03.449Z,39.60
2018-06-29T13:07:32.296Z,39.60
2018-06-29T13:10:01.238Z,39.50
2018-06-29T13:12:30.193Z,39.40
2018-06-29T13:14:59.129Z,39.30
2018-06-29T13:17:28.048Z,39.30
2018-06-29T13:19:56.933Z,39.30
2018-06-29T13:22:25.791Z,39.30
2018-06-29T13:24:54.771Z,39.40
2018-06-29T13:27:23.570Z,39.40
2018-06-29T13:29:52.510Z,39.40
2018-06-29T13:32:21.458Z,39.50
2018-06-29T13:34:51.703Z,39.60
2018-06-29T13:37:20.584Z,39.60
2018-06-29T13:39:49.672Z,39.60
2018-06-29T13:42:18.984Z,39.60
2018-06-29T13:44:47.880Z,39.60
2018-06-29T13:47:16.829Z,39.60
2018-06-29T13:49:45.668Z,39.50
2018-06-29T13:52:14.681Z,39.50
2018-06-29T13:54:43.540Z,39.50
2018-06-29T13:57:12.444Z,39.50
2018-06-29T13:59:41.326Z,39.50
2018-06-29T14:02:10.377Z,39.50
2018-06-29T14:04:39.222Z,39.50
2018-06-29T14:07:08.260Z,39.40
2018-06-29T14:09:37.104Z,39.40
2018-06-29T14:12:06.098Z,39.30
2018-06-29T14:14:34.972Z,39.30
2018-06-29T14:19:33.544Z,39.10
2018-06-29T14:22:02.479Z,39.00
2018-06-29T14:24:31.368Z,39.00
2018-06-29T14:27:00.275Z,39.00
2018-06-29T14:29:29.150Z,39.00
2018-06-29T14:31:58.041Z,39.00
2018-06-29T14:34:26.995Z,39.00
2018-06-29T14:36:55.922Z,39.00
2018-06-29T14:39:24.805Z,38.90
2018-06-29T14:41:53.690Z,38.90
2018-06-29T14:44:22.567Z,38.90
2018-06-29T14:46:51.492Z,38.80
2018-06-29T14:49:20.331Z,38.70
2018-06-29T14:51:49.223Z,38.70
2018-06-29T14:54:18.086Z,38.70
2018-06-29T14:56:47.022Z,38.60
2018-06-29T14:59:15.895Z,38.50
2018-06-29T15:01:44.852Z,38.40
2018-06-29T15:04:13.749Z,38.40
2018-06-29T15:06:42.945Z,38.40
2018-06-29T15:09:11.876Z,38.40
2018-06-29T15:11:40.747Z,38.30
2018-06-29T15:14:09.970Z,38.30
2018-06-29T15:16:38.854Z,38.30
2018-06-29T15:19:07.775Z,38.30
2018-06-29T15:21:36.720Z,38.30
2018-06-29T15:24:06.519Z,38.30
2018-06-29T15:26:35.425Z,38.30
2018-06-29T15:29:04.655Z,38.20
2018-06-29T15:31:33.548Z,38.20
2018-06-29T15:34:02.380Z,38.20
2018-06-29T15:36:31.262Z,38.20
2018-06-29T15:39:00.096Z,38.10
2018-06-29T15:41:28.915Z,38.10
2018-06-29T15:43:57.788Z,38.10
2018-06-29T15:46:26.811Z,38.10
2018-06-29T15:48:55.712Z,38.00
2018-06-29T15:51:24.557Z,38.00
2018-06-29T15:53:53.390Z,37.90
2018-06-29T15:56:22.200Z,37.80
2018-06-29T15:58:50.995Z,37.80
2018-06-29T16:01:19.871Z,37.60
2018-06-29T16:03:49.333Z,37.50
2018-06-29T16:06:18.297Z,37.50
2018-06-29T16:08:47.177Z,37.40
2018-06-29T16:11:16.039Z,37.30
2018-06-29T16:13:44.887Z,37.30
2018-06-29T16:16:13.786Z,37.20
2018-06-29T16:18:42.807Z,37.10
2018-06-29T16:21:12.103Z,37.10
2018-06-29T16:23:40.948Z,37.00
2018-06-29T16:26:10.017Z,36.90
2018-06-29T16:28:38.852Z,36.90
2018-06-29T16:31:07.709Z,36.90
2018-06-29T16:33:36.559Z,36.80
2018-06-29T16:36:05.434Z,36.80
2018-06-29T16:38:34.308Z,36.60
2018-06-29T16:41:03.179Z,36.60
2018-06-29T16:43:32.133Z,36.50
2018-06-29T16:46:00.993Z,36.50
2018-06-29T16:48:29.936Z,36.40
2018-06-29T16:50:58.787Z,36.40
2018-06-29T16:53:27.632Z,36.30
2018-06-29T16:55:56.450Z,36.20
2018-06-29T16:58:25.421Z,36.20
2018-06-29T17:00:54.298Z,36.10
2018-06-29T17:03:23.250Z,36.00
2018-06-29T17:05:52.109Z,35.90
2018-06-29T17:08:21.007Z,35.80
2018-06-29T17:10:49.921Z,35.80
2018-06-29T17:13:18.788Z,35.70
2018-06-29T17:15:47.661Z,35.60
2018-06-29T17:18:16.551Z,35.60
2018-06-29T17:20:45.505Z,35.50
2018-06-29T17:23:14.432Z,35.40
2018-06-29T17:25:43.355Z,35.30
2018-06-29T17:28:12.156Z,35.30
2018-06-29T17:30:41.032Z,35.20
2018-06-29T17:33:09.914Z,35.10
2018-06-29T17:35:38.777Z,35.00
2018-06-29T17:38:07.645Z,34.90
2018-06-29T17:40:36.535Z,34.80
2018-06-29T17:43:05.414Z,34.70
2018-06-29T17:45:34.249Z,34.70
2018-06-29T17:48:03.494Z,34.60
2018-06-29T17:50:32.677Z,34.50
2018-06-29T17:53:01.526Z,34.40
2018-06-29T17:55:30.420Z,34.40
2018-06-29T17:57:59.860Z,34.30
2018-06-29T18:00:28.742Z,34.20
2018-06-29T18:02:57.611Z,34.10
2018-06-29T18:05:26.534Z,34.00
2018-06-29T18:07:55.497Z,33.90
2018-06-29T18:10:24.933Z,33.90
2018-06-29T18:12:53.945Z,33.80
2018-06-29T18:15:22.881Z,33.70
2018-06-29T18:17:51.854Z,33.60
2018-06-29T18:20:21.551Z,33.50
2018-06-29T18:22:50.528Z,33.40
2018-06-29T18:25:19.464Z,33.30
2018-06-29T18:27:48.376Z,33.20
2018-06-29T18:30:17.334Z,33.10
2018-06-29T18:32:46.524Z,33.00
2018-06-29T18:35:15.368Z,32.90
2018-06-29T18:37:45.421Z,32.80
2018-06-29T18:40:14.326Z,32.70
2018-06-29T18:42:45.319Z,32.60
2018-06-29T18:45:16.384Z,32.40
2018-06-29T18:47:46.460Z,32.40
2018-06-29T18:50:15.321Z,32.20
2018-06-29T18:52:45.107Z,32.10
2018-06-29T18:55:15.179Z,32.00
2018-06-29T18:57:45.010Z,31.90
2018-06-29T19:00:13.966Z,31.70
2018-06-29T19:02:43.989Z,31.60
2018-06-29T19:05:12.945Z,31.50
2018-06-29T19:07:42.075Z,31.30
2018-06-29T19:10:10.926Z,31.20
2018-06-29T19:12:40.188Z,31.10
2018-06-29T19:15:09.544Z,30.90
2018-06-29T19:17:38.473Z,30.80
2018-06-29T19:20:07.450Z,30.70
2018-06-29T19:22:36.372Z,30.60
2018-06-29T19:25:05.498Z,30.40
2018-06-29T19:27:35.687Z,30.30
2018-06-29T19:30:05.277Z,30.20
2018-06-29T19:32:34.242Z,30.00
2018-06-29T19:35:03.131Z,29.90
2018-06-29T19:37:32.000Z,29.80
2018-06-29T19:40:00.866Z,29.60
2018-06-29T19:42:29.848Z,29.50
2018-06-29T19:44:59.176Z,29.30
2018-06-29T19:47:28.037Z,29.20
2018-06-29T19:49:58.420Z,29.10
2018-06-29T19:52:27.334Z,29.00
2018-06-29T19:54:56.166Z,28.90
2018-06-29T19:57:25.116Z,28.70
2018-06-29T19:59:53.994Z,28.60
2018-06-29T20:02:25.625Z,28.50
2018-06-29T20:04:55.781Z,28.40
2018-06-29T20:07:25.002Z,28.20
2018-06-29T20:12:22.385Z,28.00
2018-06-29T20:14:51.228Z,27.90
2018-06-29T20:17:20.199Z,27.80
2018-06-29T20:19:49.037Z,27.70
2018-06-29T20:22:17.900Z,27.50
2018-06-29T20:24:46.800Z,27.50
2018-06-29T20:27:16.222Z,27.30
2018-06-29T20:29:45.232Z,27.20
2018-06-29T20:32:14.176Z,27.10
2018-06-29T20:34:43.510Z,27.00
2018-06-29T20:37:12.457Z,26.90
2018-06-29T20:39:41.457Z,26.80
2018-06-29T20:42:10.397Z,26.70
2018-06-29T20:44:39.320Z,26.60
2018-06-29T20:47:08.459Z,26.50
2018-06-29T20:49:37.468Z,26.40
2018-06-29T20:52:06.821Z,26.30
2018-06-29T20:54:35.678Z,26.20
2018-06-29T20:57:04.697Z,26.10
2018-06-29T20:59:34.221Z,26.00
2018-06-29T21:02:03.126Z,25.90
2018-06-29T21:04:32.172Z,25.90
2018-06-29T21:07:06.606Z,25.80
2018-06-29T21:09:35.969Z,25.70
2018-06-29T21:12:04.874Z,25.60
2018-06-29T21:14:35.198Z,25.50
2018-06-29T21:17:04.957Z,25.40
2018-06-29T21:19:34.207Z,25.30
2018-06-29T21:22:03.034Z,25.30
2018-06-29T21:24:31.979Z,25.20
2018-06-29T21:27:00.861Z,25.10
2018-06-29T21:29:29.810Z,25.00
2018-06-29T21:31:58.826Z,24.90
2018-06-29T21:34:27.695Z,24.90
2018-06-29T21:36:56.627Z,24.80
2018-06-29T21:39:25.495Z,24.70
2018-06-29T21:41:54.344Z,24.60
2018-06-29T21:44:23.255Z,24.60
2018-06-29T21:46:52.171Z,24.50
